createdAt,value
2022-11-05T00:00:36.205Z,6.70
2022-11-05T00:03:21.695Z,6.70
2022-11-05T00:06:09.505Z,6.70
2022-11-05T00:08:54.836Z,6.60
2022-11-05T00:11:41.905Z,6.70
2022-11-05T00:14:34.682Z,6.60
2022-11-05T00:17:01.511Z,6.60
2022-11-05T00:19:28.276Z,6.60
2022-11-05T00:22:13.628Z,6.60
2022-11-05T00:25:18.781Z,6.60
2022-11-05T00:27:51.259Z,6.60
2022-11-05T00:30:23.815Z,6.50
2022-11-05T00:32:52.694Z,6.60
2022-11-05T00:35:21.642Z,6.60
2022-11-05T00:37:50.362Z,6.50
2022-11-05T00:40:17.798Z,6.50
2022-11-05T00:43:03.823Z,6.60
2022-11-05T00:45:31.635Z,6.50
2022-11-05T00:48:17.193Z,6.50
2022-11-05T00:50:43.999Z,6.60
2022-11-05T00:53:11.185Z,6.50
2022-11-05T00:55:41.067Z,6.50
2022-11-05T00:58:10.360Z,6.50
2022-11-05T01:00:39.090Z,6.60
2022-11-05T01:03:15.191Z,6.50
2022-11-05T01:05:44.717Z,6.60
2022-11-05T01:08:13.105Z,6.60
2022-11-05T01:10:41.755Z,6.80
2022-11-05T01:13:12.916Z,6.70
2022-11-05T01:15:41.590Z,6.70
2022-11-05T01:18:08.567Z,6.70
2022-11-05T01:20:35.558Z,6.70
2022-11-05T01:23:02.379Z,6.70
2022-11-05T01:25:29.255Z,6.70
2022-11-05T01:27:56.132Z,6.70
2022-11-05T01:30:23.729Z,6.70
2022-11-05T01:32:50.726Z,6.70
2022-11-05T01:35:18.046Z,6.70
2022-11-05T01:37:45.836Z,6.70
2022-11-05T01:40:15.076Z,6.70
2022-11-05T01:42:42.564Z,6.60
2022-11-05T01:45:16.335Z,6.60
2022-11-05T01:48:09.019Z,6.60
2022-11-05T01:50:58.425Z,6.60
2022-11-05T01:53:37.039Z,6.60
2022-11-05T01:56:09.557Z,6.60
2022-11-05T01:58:55.048Z,6.50
2022-11-05T02:01:22.604Z,6.50
2022-11-05T02:03:52.282Z,6.50
2022-11-05T02:06:20.930Z,6.50
2022-11-05T02:09:11.345Z,6.50
2022-11-05T02:11:38.133Z,6.50
2022-11-05T02:14:05.191Z,6.50
2022-11-05T02:16:55.336Z,6.40
2022-11-05T02:19:43.679Z,6.40
2022-11-05T02:22:49.898Z,6.40
2022-11-05T02:25:45.965Z,6.30
2022-11-05T02:28:31.659Z,6.30
2022-11-05T02:31:23.648Z,6.30
2022-11-05T02:34:16.370Z,6.30
2022-11-05T02:37:09.239Z,6.30
2022-11-05T02:39:43.711Z,6.30
2022-11-05T02:42:38.506Z,6.20
2022-11-05T02:45:38.254Z,6.30
2022-11-05T02:48:10.928Z,6.20
2022-11-05T02:50:48.750Z,6.40
2022-11-05T02:53:22.413Z,6.20
2022-11-05T02:56:05.226Z,6.30
2022-11-05T02:58:34.541Z,6.30
2022-11-05T03:01:06.671Z,6.30
2022-11-05T03:03:42.913Z,6.30
2022-11-05T03:06:24.757Z,6.30
2022-11-05T03:09:20.078Z,6.30
2022-11-05T03:12:08.061Z,6.40
2022-11-05T03:14:40.179Z,6.30
2022-11-05T03:17:36.807Z,6.30
2022-11-05T03:20:22.506Z,6.30
2022-11-05T03:23:03.488Z,6.30
2022-11-05T03:25:32.342Z,6.30
2022-11-05T03:28:04.446Z,6.40
2022-11-05T03:30:33.787Z,6.30
2022-11-05T03:33:05.950Z,6.30
2022-11-05T03:35:39.917Z,6.40
2022-11-05T03:38:20.091Z,6.30
2022-11-05T03:40:49.556Z,6.40
2022-11-05T03:43:17.658Z,6.30
2022-11-05T03:45:52.774Z,6.30
2022-11-05T03:48:22.301Z,6.30
2022-11-05T03:51:00.694Z,6.30
2022-11-05T03:53:32.115Z,6.30
2022-11-05T03:56:27.585Z,6.30
2022-11-05T03:58:58.868Z,6.20
2022-11-05T04:01:27.262Z,6.20
2022-11-05T04:03:54.202Z,6.20
2022-11-05T04:06:39.665Z,6.20
2022-11-05T04:09:25.591Z,6.20
2022-11-05T04:12:11.361Z,6.30
2022-11-05T04:14:39.497Z,6.20
2022-11-05T04:17:06.392Z,6.20
2022-11-05T04:19:57.000Z,6.20
2022-11-05T04:22:43.911Z,6.20
2022-11-05T04:25:11.438Z,6.20
2022-11-05T04:27:38.657Z,6.20
2022-11-05T04:30:18.917Z,6.20
2022-11-05T04:33:11.026Z,6.30
2022-11-05T04:35:42.197Z,6.30
2022-11-05T04:38:11.914Z,6.20
2022-11-05T04:40:38.999Z,6.20
2022-11-05T04:43:10.647Z,6.30
2022-11-05T04:45:41.789Z,6.20
2022-11-05T04:48:08.619Z,6.20
2022-11-05T04:50:35.488Z,6.30
2022-11-05T04:53:02.482Z,6.20
2022-11-05T04:55:29.341Z,6.30
2022-11-05T04:57:56.134Z,6.20
2022-11-05T05:00:24.036Z,6.20
2022-11-05T05:02:50.906Z,6.30
2022-11-05T05:05:17.912Z,6.30
2022-11-05T05:07:44.921Z,6.20
2022-11-05T05:10:12.205Z,6.20
2022-11-05T05:12:39.406Z,6.20
2022-11-05T05:15:06.857Z,6.20
2022-11-05T05:17:37.041Z,6.20
2022-11-05T05:20:22.475Z,6.20
2022-11-05T05:22:56.031Z,6.20
2022-11-05T05:25:23.311Z,6.20
2022-11-05T05:27:50.124Z,6.20
2022-11-05T05:30:17.390Z,6.20
2022-11-05T05:32:44.363Z,6.20
2022-11-05T05:35:11.209Z,6.30
2022-11-05T05:37:38.427Z,6.10
2022-11-05T05:40:05.524Z,6.20
2022-11-05T05:42:32.619Z,6.20
2022-11-05T05:44:59.452Z,6.20
2022-11-05T05:47:26.502Z,6.10
2022-11-05T05:49:53.352Z,6.20
2022-11-05T05:52:20.130Z,6.20
2022-11-05T05:54:46.951Z,6.10
2022-11-05T05:57:13.787Z,6.10
2022-11-05T05:59:40.541Z,6.10
2022-11-05T06:02:07.520Z,6.10
2022-11-05T06:04:34.486Z,6.20
2022-11-05T06:07:01.223Z,6.10
2022-11-05T06:09:28.033Z,6.10
2022-11-05T06:11:54.959Z,6.10
2022-11-05T06:14:21.915Z,6.10
2022-11-05T06:16:48.685Z,6.10
2022-11-05T06:19:15.476Z,6.10
2022-11-05T06:21:42.270Z,6.00
2022-11-05T06:24:09.186Z,6.10
2022-11-05T06:26:36.133Z,6.00
2022-11-05T06:29:02.969Z,6.10
2022-11-05T06:31:29.724Z,6.10
2022-11-05T06:33:56.471Z,6.00
2022-11-05T06:36:23.253Z,6.00
2022-11-05T06:38:50.117Z,6.00
2022-11-05T06:41:16.950Z,6.00
2022-11-05T06:43:43.890Z,6.00
2022-11-05T06:46:11.910Z,5.90
2022-11-05T06:48:39.118Z,5.90
2022-11-05T06:51:07.953Z,5.90
2022-11-05T06:53:35.236Z,5.90
2022-11-05T06:56:06.774Z,5.90
2022-11-05T06:58:34.091Z,5.90
2022-11-05T07:01:09.021Z,5.90
2022-11-05T07:03:37.349Z,5.90
2022-11-05T07:06:05.853Z,5.90
2022-11-05T07:08:34.401Z,5.90
2022-11-05T07:11:01.439Z,5.90
2022-11-05T07:13:28.318Z,5.80
2022-11-05T07:15:55.383Z,5.80
2022-11-05T07:18:22.439Z,5.80
2022-11-05T07:20:49.400Z,5.80
2022-11-05T07:23:16.319Z,5.80
2022-11-05T07:25:43.369Z,5.70
2022-11-05T07:28:10.711Z,5.80
2022-11-05T07:30:38.092Z,5.80
2022-11-05T07:33:05.060Z,5.70
2022-11-05T07:35:32.008Z,5.70
2022-11-05T07:37:58.844Z,5.70
2022-11-05T07:40:27.712Z,5.70
2022-11-05T07:43:00.124Z,5.70
2022-11-05T07:45:28.941Z,5.70
2022-11-05T07:48:02.948Z,5.80
2022-11-05T07:50:35.387Z,5.80
2022-11-05T07:53:11.169Z,5.90
2022-11-05T07:55:40.446Z,5.90
2022-11-05T07:58:07.329Z,6.00
2022-11-05T08:00:34.341Z,6.00
2022-11-05T08:03:18.575Z,6.10
2022-11-05T08:05:47.551Z,6.20
2022-11-05T08:08:16.599Z,6.20
2022-11-05T08:10:43.459Z,6.30
2022-11-05T08:13:10.772Z,6.40
2022-11-05T08:15:38.011Z,6.50
2022-11-05T08:18:13.673Z,6.60
2022-11-05T08:20:41.863Z,6.70
2022-11-05T08:23:10.020Z,6.70
2022-11-05T08:25:37.229Z,6.60
2022-11-05T08:28:07.433Z,6.70
2022-11-05T08:30:34.995Z,6.70
2022-11-05T08:33:07.386Z,6.80
2022-11-05T08:35:35.518Z,6.80
2022-11-05T08:38:03.955Z,6.90
2022-11-05T08:40:32.469Z,7.00
2022-11-05T08:43:00.761Z,7.10
2022-11-05T08:45:28.357Z,7.10
2022-11-05T08:48:07.189Z,7.30
2022-11-05T08:50:35.067Z,7.40
2022-11-05T08:53:01.892Z,7.50
2022-11-05T08:55:29.147Z,7.60
2022-11-05T08:58:00.440Z,7.70
2022-11-05T09:00:28.786Z,7.80
2022-11-05T09:02:58.407Z,7.70
2022-11-05T09:05:25.186Z,7.80
2022-11-05T09:07:55.283Z,7.80
2022-11-05T09:10:26.702Z,8.00
2022-11-05T09:12:53.495Z,8.00
2022-11-05T09:15:20.263Z,8.00
2022-11-05T09:17:47.036Z,8.10
2022-11-05T09:20:13.897Z,8.00
2022-11-05T09:22:43.441Z,8.10
2022-11-05T09:25:10.722Z,8.20
2022-11-05T09:27:37.606Z,8.30
2022-11-05T09:30:05.592Z,8.40
2022-11-05T09:32:32.775Z,8.30
2022-11-05T09:35:01.146Z,8.40
2022-11-05T09:37:28.861Z,8.50
2022-11-05T09:39:55.801Z,8.60
2022-11-05T09:42:26.716Z,8.50
2022-11-05T09:45:01.431Z,8.60
2022-11-05T09:47:34.982Z,8.60
2022-11-05T09:50:06.898Z,8.70
2022-11-05T09:52:34.520Z,8.80
2022-11-05T09:55:04.242Z,8.90
2022-11-05T09:57:45.874Z,8.90
2022-11-05T10:00:17.359Z,9.00
2022-11-05T10:02:51.337Z,9.10
2022-11-05T10:05:19.887Z,9.20
2022-11-05T10:07:57.061Z,9.30
2022-11-05T10:10:47.088Z,9.30
2022-11-05T10:13:39.869Z,9.30
2022-11-05T10:16:27.904Z,9.40
2022-11-05T10:19:12.705Z,9.40
2022-11-05T10:22:04.947Z,9.50
2022-11-05T10:24:28.116Z,9.50
2022-11-05T10:26:55.685Z,9.50
2022-11-05T10:29:30.020Z,9.60
2022-11-05T10:31:59.999Z,9.50
2022-11-05T10:34:31.393Z,9.60
2022-11-05T10:36:58.718Z,9.80
2022-11-05T10:39:27.873Z,9.70
2022-11-05T10:42:06.359Z,9.80
2022-11-05T10:44:54.629Z,9.80
2022-11-05T10:47:51.821Z,9.90
2022-11-05T10:50:27.096Z,10.00
2022-11-05T10:53:15.085Z,10.10
2022-11-05T10:55:46.068Z,10.30
2022-11-05T10:58:15.989Z,10.40
2022-11-05T11:00:45.183Z,10.50
2022-11-05T11:03:47.620Z,10.50
2022-11-05T11:06:25.589Z,10.50
2022-11-05T11:08:57.652Z,10.50
2022-11-05T11:11:34.071Z,10.60
2022-11-05T11:14:11.670Z,10.60
2022-11-05T11:16:39.867Z,10.70
2022-11-05T11:19:28.909Z,10.80
2022-11-05T11:22:04.978Z,10.80
2022-11-05T11:24:45.152Z,10.90
2022-11-05T11:27:20.993Z,11.00
2022-11-05T11:29:52.521Z,11.10
2022-11-05T11:32:21.230Z,11.20
2022-11-05T11:34:52.522Z,11.20
2022-11-05T11:37:25.566Z,11.30
2022-11-05T11:39:57.118Z,11.40
2022-11-05T11:42:36.658Z,11.50
2022-11-05T11:45:19.879Z,11.40
2022-11-05T11:47:49.310Z,11.40
2022-11-05T11:50:33.631Z,11.40
2022-11-05T11:53:22.329Z,11.50
2022-11-05T11:55:55.495Z,11.50
2022-11-05T11:58:37.459Z,11.60
2022-11-05T12:01:25.252Z,11.70
2022-11-05T12:04:00.842Z,11.70
2022-11-05T12:06:48.033Z,11.80
2022-11-05T12:09:35.086Z,11.70
2022-11-05T12:12:10.768Z,11.60
2022-11-05T12:14:48.993Z,11.60
2022-11-05T12:17:37.685Z,11.60
2022-11-05T12:20:10.525Z,11.70
2022-11-05T12:22:43.230Z,11.60
2022-11-05T12:25:22.741Z,11.60
2022-11-05T12:28:03.191Z,11.50
2022-11-05T12:30:39.599Z,11.50
2022-11-05T12:33:36.814Z,11.40
2022-11-05T12:36:13.258Z,11.30
2022-11-05T12:39:09.193Z,11.30
2022-11-05T12:42:05.772Z,11.10
2022-11-05T12:44:47.956Z,11.00
2022-11-05T12:47:49.483Z,11.00
2022-11-05T12:50:35.723Z,10.90
2022-11-05T12:53:27.783Z,10.90
2022-11-05T12:55:58.581Z,10.90
2022-11-05T12:58:42.623Z,10.90
2022-11-05T13:01:26.704Z,10.90
2022-11-05T13:04:00.916Z,11.00
2022-11-05T13:06:35.137Z,10.90
2022-11-05T13:09:04.350Z,11.00
2022-11-05T13:11:40.674Z,11.10
2022-11-05T13:14:21.578Z,11.10
2022-11-05T13:16:57.003Z,11.10
2022-11-05T13:19:31.272Z,11.20
2022-11-05T13:22:14.437Z,11.10
2022-11-05T13:24:53.009Z,11.20
2022-11-05T13:27:42.928Z,11.30
2022-11-05T13:30:17.047Z,11.30
2022-11-05T13:32:48.265Z,11.30
2022-11-05T13:35:21.193Z,11.30
2022-11-05T13:38:12.881Z,11.30
2022-11-05T13:41:06.414Z,11.40
2022-11-05T13:44:11.506Z,11.40
2022-11-05T13:46:59.512Z,11.30
2022-11-05T13:49:49.865Z,11.40
2022-11-05T13:52:51.353Z,11.30
2022-11-05T13:55:53.125Z,11.30
2022-11-05T13:58:49.900Z,11.30
2022-11-05T14:01:23.538Z,11.30
2022-11-05T14:03:53.055Z,11.30
2022-11-05T14:06:35.287Z,11.30
2022-11-05T14:09:11.063Z,11.20
2022-11-05T14:11:42.671Z,11.20
2022-11-05T14:14:18.922Z,11.10
2022-11-05T14:16:51.631Z,11.20
2022-11-05T14:19:28.372Z,11.20
2022-11-05T14:21:57.492Z,11.20
2022-11-05T14:24:45.709Z,11.20
2022-11-05T14:27:12.447Z,11.10
2022-11-05T14:29:43.624Z,11.10
2022-11-05T14:32:25.231Z,11.00
2022-11-05T14:35:34.095Z,11.00
2022-11-05T14:38:01.040Z,11.00
2022-11-05T14:40:44.279Z,11.00
2022-11-05T14:43:14.248Z,10.90
2022-11-05T14:45:56.112Z,10.80
2022-11-05T14:48:30.159Z,10.80
2022-11-05T14:50:57.127Z,10.80
2022-11-05T14:53:37.827Z,10.80
2022-11-05T14:56:09.464Z,10.80
2022-11-05T14:58:40.871Z,10.70
2022-11-05T15:01:15.114Z,10.70
2022-11-05T15:03:46.306Z,10.70
2022-11-05T15:06:32.924Z,10.70
2022-11-05T15:08:59.708Z,10.60
2022-11-05T15:11:34.505Z,10.70
2022-11-05T15:14:16.308Z,10.60
2022-11-05T15:16:47.683Z,10.50
2022-11-05T15:19:29.265Z,10.40
2022-11-05T15:21:59.550Z,10.50
2022-11-05T15:24:30.044Z,10.40
2022-11-05T15:27:05.965Z,10.40
2022-11-05T15:29:33.622Z,10.40
2022-11-05T15:32:01.158Z,10.40
2022-11-05T15:34:36.923Z,10.30
2022-11-05T15:37:13.151Z,10.40
2022-11-05T15:39:42.519Z,10.30
2022-11-05T15:42:26.931Z,10.30
2022-11-05T15:44:56.069Z,10.30
2022-11-05T15:47:34.106Z,10.20
2022-11-05T15:50:14.053Z,10.20
2022-11-05T15:52:52.711Z,10.20
2022-11-05T15:55:23.901Z,10.10
2022-11-05T15:58:00.924Z,10.00
2022-11-05T16:00:30.734Z,10.00
2022-11-05T16:03:04.691Z,10.00
2022-11-05T16:05:35.289Z,9.90
2022-11-05T16:08:04.397Z,9.90
2022-11-05T16:10:34.808Z,9.80
2022-11-05T16:13:21.503Z,9.90
2022-11-05T16:15:56.294Z,9.80
2022-11-05T16:18:29.493Z,9.80
2022-11-05T16:21:17.524Z,9.80
2022-11-05T16:23:53.173Z,9.70
2022-11-05T16:29:29.873Z,9.70
2022-11-05T16:31:58.854Z,9.60
2022-11-05T16:34:41.539Z,9.60
2022-11-05T16:37:13.459Z,9.60
2022-11-05T16:39:40.807Z,9.70
2022-11-05T16:42:33.549Z,9.60
2022-11-05T16:45:00.313Z,9.60
2022-11-05T16:47:27.146Z,9.50
2022-11-05T16:49:53.966Z,9.50
2022-11-05T16:52:20.738Z,9.50
2022-11-05T16:54:47.495Z,9.50
2022-11-05T16:57:31.876Z,9.50
2022-11-05T17:00:00.230Z,9.50
2022-11-05T17:02:27.882Z,9.50
2022-11-05T17:04:54.974Z,9.40
2022-11-05T17:07:21.865Z,9.40
2022-11-05T17:09:48.705Z,9.40
2022-11-05T17:12:16.202Z,9.40
2022-11-05T17:14:43.101Z,9.40
2022-11-05T17:17:10.544Z,9.40
2022-11-05T17:19:42.196Z,9.40
2022-11-05T17:22:09.293Z,9.40
2022-11-05T17:24:36.136Z,9.40
2022-11-05T17:27:05.275Z,9.40
2022-11-05T17:29:32.126Z,9.40
2022-11-05T17:31:59.033Z,9.50
2022-11-05T17:34:25.799Z,9.50
2022-11-05T17:36:52.527Z,9.50
2022-11-05T17:39:19.346Z,9.50
2022-11-05T17:41:46.169Z,9.50
2022-11-05T17:44:12.917Z,9.50
2022-11-05T17:46:39.686Z,9.50
2022-11-05T17:49:06.658Z,9.50
2022-11-05T17:51:34.604Z,9.50
2022-11-05T17:54:01.419Z,9.50
2022-11-05T17:56:34.782Z,9.50
2022-11-05T17:59:03.541Z,9.50
2022-11-05T18:01:33.588Z,9.50
2022-11-05T18:04:07.122Z,9.50
2022-11-05T18:06:36.970Z,9.50
2022-11-05T18:09:05.350Z,9.50
2022-11-05T18:11:33.104Z,9.60
2022-11-05T18:14:00.075Z,9.50
2022-11-05T18:16:27.686Z,9.50
2022-11-05T18:18:54.554Z,9.50
2022-11-05T18:21:21.321Z,9.70
2022-11-05T18:23:48.100Z,9.60
2022-11-05T18:26:16.444Z,9.60
2022-11-05T18:28:44.373Z,9.60
2022-11-05T18:31:22.564Z,9.60
2022-11-05T18:33:50.615Z,9.70
2022-11-05T18:36:31.255Z,9.70
2022-11-05T18:38:59.489Z,9.70
2022-11-05T18:41:26.474Z,9.70
2022-11-05T18:43:53.448Z,9.70
2022-11-05T18:46:51.306Z,9.80
2022-11-05T18:49:07.644Z,9.80
2022-11-05T18:51:35.084Z,9.80
2022-11-05T18:54:01.949Z,9.90
2022-11-05T18:56:29.054Z,9.90
2022-11-05T18:59:22.031Z,9.90
2022-11-05T19:01:44.009Z,9.90
2022-11-05T19:04:11.267Z,9.80
2022-11-05T19:06:39.118Z,9.80
2022-11-05T19:09:08.537Z,9.90
2022-11-05T19:11:36.019Z,9.80
2022-11-05T19:14:02.839Z,9.80
2022-11-05T19:16:31.226Z,9.80
2022-11-05T19:19:00.140Z,9.80
2022-11-05T19:21:27.350Z,9.90
2022-11-05T19:23:56.125Z,9.80
2022-11-05T19:26:28.654Z,9.80
2022-11-05T19:28:58.789Z,9.80
2022-11-05T19:31:26.595Z,9.80
2022-11-05T19:33:54.315Z,9.80
2022-11-05T19:36:22.750Z,9.90
2022-11-05T19:38:54.841Z,9.90
2022-11-05T19:41:22.365Z,9.90
2022-11-05T19:43:49.243Z,9.80
2022-11-05T19:46:18.371Z,9.80
2022-11-05T19:48:45.685Z,9.80
2022-11-05T19:51:22.790Z,9.90
2022-11-05T19:53:52.682Z,9.90
2022-11-05T19:56:25.288Z,9.90
2022-11-05T19:58:53.272Z,9.80
2022-11-05T20:01:22.231Z,9.80
2022-11-05T20:03:49.814Z,9.90
2022-11-05T20:06:28.555Z,9.90
2022-11-05T20:09:20.681Z,9.90
2022-11-05T20:11:45.337Z,9.90
2022-11-05T20:14:13.721Z,9.90
2022-11-05T20:16:42.247Z,10.00
2022-11-05T20:19:16.681Z,9.90
2022-11-05T20:21:43.637Z,9.90
2022-11-05T20:24:20.549Z,9.90
2022-11-05T20:26:49.091Z,9.90
2022-11-05T20:29:16.323Z,10.00
2022-11-05T20:31:43.133Z,9.90
2022-11-05T20:34:10.572Z,9.90
2022-11-05T20:36:38.747Z,10.00
2022-11-05T20:39:05.846Z,9.90
2022-11-05T20:41:33.255Z,10.00
2022-11-05T20:44:00.338Z,10.00
2022-11-05T20:46:27.570Z,9.90
2022-11-05T20:48:54.807Z,9.90
2022-11-05T20:51:23.196Z,9.90
2022-11-05T20:53:57.785Z,10.00
2022-11-05T20:56:27.792Z,10.00
2022-11-05T20:58:58.386Z,10.10
2022-11-05T21:01:31.067Z,10.00
2022-11-05T21:03:59.629Z,10.10
2022-11-05T21:06:26.673Z,9.90
2022-11-05T21:08:54.587Z,10.00
2022-11-05T21:11:21.552Z,10.20
2022-11-05T21:13:50.942Z,10.10
2022-11-05T21:16:19.423Z,10.00
2022-11-05T21:18:47.323Z,10.00
2022-11-05T21:21:17.806Z,10.10
2022-11-05T21:23:44.742Z,10.10
2022-11-05T21:26:13.899Z,10.10
2022-11-05T21:28:42.123Z,10.10
2022-11-05T21:31:10.138Z,10.10
2022-11-05T21:33:37.406Z,10.10
2022-11-05T21:36:09.292Z,10.10
2022-11-05T21:38:36.560Z,10.00
2022-11-05T21:41:04.689Z,10.00
2022-11-05T21:43:31.804Z,10.00
2022-11-05T21:46:02.257Z,10.00
2022-11-05T21:48:29.103Z,10.10
2022-11-05T21:51:14.718Z,10.20
2022-11-05T21:54:00.068Z,10.10
2022-11-05T21:56:46.270Z,10.20
2022-11-05T21:59:37.506Z,10.10
2022-11-05T22:02:05.260Z,10.20
2022-11-05T22:04:37.700Z,10.10
2022-11-05T22:07:06.812Z,10.10
2022-11-05T22:09:34.386Z,10.20
2022-11-05T22:12:01.861Z,10.00
2022-11-05T22:14:28.949Z,10.00
2022-11-05T22:16:56.531Z,9.80
2022-11-05T22:19:25.167Z,9.90
2022-11-05T22:21:52.030Z,9.80
2022-11-05T22:24:19.338Z,9.80
2022-11-05T22:26:46.226Z,9.80
2022-11-05T22:29:13.845Z,9.90
2022-11-05T22:31:40.845Z,9.80
2022-11-05T22:34:09.535Z,9.80
2022-11-05T22:36:36.409Z,9.70
2022-11-05T22:39:03.584Z,9.70
2022-11-05T22:41:30.485Z,9.70
2022-11-05T22:43:57.972Z,9.70
2022-11-05T22:46:26.243Z,9.70
2022-11-05T22:48:53.526Z,9.80
2022-11-05T22:51:22.804Z,9.70
2022-11-05T22:53:50.247Z,9.70
2022-11-05T22:56:20.046Z,9.70
2022-11-05T22:58:47.525Z,9.60
2022-11-05T23:01:15.806Z,9.70
2022-11-05T23:03:44.611Z,9.70
2022-11-05T23:06:45.012Z,9.70
2022-11-05T23:09:38.283Z,9.70
2022-11-05T23:12:09.364Z,9.70
2022-11-05T23:14:36.911Z,9.70
2022-11-05T23:17:22.289Z,9.70
2022-11-05T23:20:07.603Z,9.60
2022-11-05T23:22:52.942Z,9.60
2022-11-05T23:25:22.005Z,9.70
2022-11-05T23:27:51.333Z,9.70
2022-11-05T23:30:21.526Z,9.70
2022-11-05T23:32:48.970Z,9.70
2022-11-05T23:35:16.192Z,9.70
2022-11-05T23:38:01.495Z,9.80
2022-11-05T23:40:30.980Z,9.80
2022-11-05T23:43:16.339Z,9.90
2022-11-05T23:45:59.114Z,9.90
2022-11-05T23:48:32.268Z,9.90
2022-11-05T23:50:58.912Z,9.80
2022-11-05T23:53:26.752Z,9.80
2022-11-05T23:55:53.625Z,9.80
2022-11-05T23:58:20.474Z,9.80
